Time;durP1;ratioP1;P1;durP2;ratioP2;P2;SDS_P1;SDS_P2;PMS_P1;PMS_P2;Temp;Humidity;BMP_temperature;BMP_pressure;BME280_temperature;BME280_humidity;BME280_pressure;Samples;Min_cycle;Max_cycle;Signal;HPM_P1;HPM_P2
2022/06/07 00:02:05;;;;;;;3.38;1.23;;;16.30;99.90;;;;;;4942911;29;20066;-85
2022/06/07 00:04:31;;;;;;;1.08;0.90;;;16.30;99.90;;;;;;4952453;29;20023;-85
2022/06/07 00:06:57;;;;;;;1.40;1.30;;;16.20;99.90;;;;;;4958621;28;20023;-85
2022/06/07 00:09:22;;;;;;;1.13;1.00;;;16.20;99.90;;;;;;4945872;29;20027;-85
2022/06/07 00:12:05;;;;;;;2.90;1.40;;;16.20;99.90;;;;;;4948859;28;20027;-85
2022/06/07 00:14:32;;;;;;;4.70;1.23;;;16.10;99.90;;;;;;4973458;28;20497;-86
2022/06/07 00:16:58;;;;;;;1.05;1.02;;;16.10;99.90;;;;;;4962830;28;20103;-85
2022/06/07 00:19:51;;;;;;;1.95;1.20;;;16.00;99.90;;;;;;4938124;29;20458;-85
2022/06/07 00:22:17;;;;;;;2.10;1.15;;;15.90;99.90;;;;;;4948287;28;20498;-85
2022/06/07 00:24:43;;;;;;;1.48;1.38;;;15.90;99.90;;;;;;4946158;28;20031;-84
2022/06/07 00:27:09;;;;;;;3.35;1.60;;;15.80;99.90;;;;;;4950230;29;20090;-85
2022/06/07 00:29:35;;;;;;;2.75;1.08;;;15.80;99.90;;;;;;4956200;28;20118;-85
2022/06/07 00:32:02;;;;;;;2.53;1.00;;;15.70;99.90;;;;;;4941545;28;20391;-85
2022/06/07 00:34:36;;;;;;;6.13;1.40;;;15.70;99.90;;;;;;4951163;28;20047;-85
2022/06/07 00:37:02;;;;;;;4.25;1.50;;;15.70;99.90;;;;;;4940556;28;20036;-85
2022/06/07 00:39:28;;;;;;;2.22;1.10;;;15.60;99.90;;;;;;4946406;28;20595;-85
2022/06/07 00:41:56;;;;;;;1.55;1.42;;;15.60;99.90;;;;;;4967030;28;20479;-85
2022/06/07 00:44:41;;;;;;;2.33;1.40;;;15.50;99.90;;;;;;4940067;29;20498;-85
2022/06/07 00:47:11;;;;;;;3.38;1.50;;;15.50;99.90;;;;;;4935299;29;20032;-86
2022/06/07 00:50:03;;;;;;;1.67;1.58;;;15.50;99.90;;;;;;4951596;28;20034;-85
2022/06/07 00:52:31;;;;;;;1.88;1.25;;;15.40;99.90;;;;;;4939048;29;20030;-85
2022/06/07 00:54:57;;;;;;;2.17;1.40;;;15.40;99.90;;;;;;4960448;28;20043;-85
2022/06/07 00:57:59;;;;;;;2.75;1.40;;;15.30;99.90;;;;;;4954653;28;20023;-85
2022/06/07 01:00:24;;;;;;;1.50;1.40;;;15.30;99.90;;;;;;4958693;28;20073;-85
2022/06/07 01:02:51;;;;;;;1.45;1.20;;;15.20;99.90;;;;;;4939404;28;20041;-85
2022/06/07 01:05:29;;;;;;;1.38;1.25;;;15.20;99.90;;;;;;4953545;28;20086;-85
2022/06/07 01:10:44;;;;;;;1.75;1.40;;;15.10;99.90;;;;;;4957835;28;20390;-85
2022/06/07 01:13:19;;;;;;;2.67;1.55;;;15.00;99.90;;;;;;4953142;28;20035;-85
2022/06/07 01:15:45;;;;;;;3.00;1.45;;;15.00;99.90;;;;;;4957650;28;20074;-85
2022/06/07 01:18:12;;;;;;;1.70;1.27;;;14.90;99.90;;;;;;4961109;28;20098;-85
2022/06/07 01:20:40;;;;;;;7.18;1.67;;;14.90;99.90;;;;;;4957859;29;20401;-85
2022/06/07 01:23:05;;;;;;;4.15;1.60;;;14.90;99.90;;;;;;4948895;28;20483;-85
2022/06/07 01:25:36;;;;;;;2.40;1.15;;;14.90;99.90;;;;;;4962670;28;20031;-85
2022/06/07 01:28:01;;;;;;;7.43;1.45;;;14.90;99.90;;;;;;4941629;28;20035;-85
2022/06/07 01:30:28;;;;;;;4.82;1.33;;;14.90;99.90;;;;;;4957032;29;20047;-87
2022/06/07 01:32:54;;;;;;;7.63;1.42;;;14.90;99.90;;;;;;4952557;28;20111;-85
2022/06/07 01:35:20;;;;;;;1.92;1.20;;;14.90;99.90;;;;;;4945366;28;20364;-85
2022/06/07 01:37:45;;;;;;;2.35;1.25;;;14.90;99.90;;;;;;4957213;29;20479;-84
2022/06/07 01:43:04;;;;;;;2.10;1.20;;;15.00;99.90;;;;;;4965399;28;20505;-85
2022/06/07 01:45:30;;;;;;;2.53;1.45;;;15.00;99.90;;;;;;4964158;28;20031;-85
2022/06/07 01:47:58;;;;;;;5.00;1.48;;;15.10;99.90;;;;;;4952233;28;20398;-85
2022/06/07 01:50:23;;;;;;;2.28;1.60;;;15.10;99.90;;;;;;4938667;29;20035;-85
2022/06/07 01:52:58;;;;;;;5.13;1.95;;;15.10;99.90;;;;;;4938826;28;20025;-85
2022/06/07 01:55:23;;;;;;;3.35;1.40;;;15.00;99.90;;;;;;4949561;29;20131;-85
2022/06/07 01:57:50;;;;;;;4.35;1.30;;;15.00;99.90;;;;;;4940225;28;20121;-86
2022/06/07 02:00:16;;;;;;;2.80;1.42;;;14.90;99.90;;;;;;4960484;28;20042;-86
2022/06/07 02:02:56;;;;;;;1.33;1.10;;;14.90;99.90;;;;;;4967360;28;20042;-86
2022/06/07 02:05:22;;;;;;;2.78;1.52;;;14.90;99.90;;;;;;4941888;29;20436;-86
2022/06/07 02:07:47;;;;;;;1.20;1.10;;;14.90;99.90;;;;;;4941781;28;20019;-86
2022/06/07 02:10:24;;;;;;;0.90;0.90;;;14.80;99.90;;;;;;4951121;28;20387;-86
2022/06/07 02:12:50;;;;;;;2.42;1.10;;;14.80;99.90;;;;;;4961101;28;20971;-85
2022/06/07 02:15:16;;;;;;;1.27;1.20;;;14.80;99.90;;;;;;4960027;28;20024;-86
2022/06/07 02:17:50;;;;;;;1.58;1.10;;;14.80;99.90;;;;;;4956601;29;20031;-86
2022/06/07 02:20:15;;;;;;;1.75;1.50;;;14.80;99.90;;;;;;4955927;28;20578;-86
2022/06/07 02:22:41;;;;;;;2.63;1.50;;;14.80;99.90;;;;;;4956567;29;20122;-86
2022/06/07 02:25:44;;;;;;;1.45;1.35;;;14.80;99.90;;;;;;4936302;29;20027;-86
2022/06/07 02:28:12;;;;;;;2.15;1.20;;;14.80;99.90;;;;;;4950132;29;20031;-86
2022/06/07 02:30:40;;;;;;;2.47;1.30;;;14.80;99.90;;;;;;4955586;28;20038;-86
2022/06/07 02:33:08;;;;;;;2.83;1.38;;;14.80;99.90;;;;;;4953761;28;20035;-86
2022/06/07 02:35:34;;;;;;;4.20;1.42;;;14.80;99.90;;;;;;4969179;28;20031;-86
2022/06/07 02:38:00;;;;;;;1.45;1.35;;;14.70;99.90;;;;;;4960150;28;20030;-86
2022/06/07 02:40:29;;;;;;;1.67;1.50;;;14.70;99.90;;;;;;4972700;28;20029;-87
2022/06/07 02:42:55;;;;;;;1.80;1.38;;;14.70;99.90;;;;;;4956382;28;20035;-86
2022/06/07 02:45:21;;;;;;;1.67;1.27;;;14.70;99.90;;;;;;4970161;28;20512;-86
2022/06/07 02:47:52;;;;;;;2.00;1.20;;;14.70;99.90;;;;;;4969998;28;20033;-86
2022/06/07 02:50:18;;;;;;;2.40;1.13;;;14.60;99.90;;;;;;4954699;28;20086;-86
2022/06/07 02:52:43;;;;;;;3.33;1.52;;;14.60;99.90;;;;;;4968848;28;20419;-86
2022/06/07 02:55:09;;;;;;;1.17;1.08;;;14.50;99.90;;;;;;4969247;28;20051;-85
2022/06/07 02:57:36;;;;;;;1.42;1.10;;;14.50;99.90;;;;;;4956031;29;20031;-86
2022/06/07 03:00:03;;;;;;;1.45;1.20;;;14.50;99.90;;;;;;4954580;28;20494;-85
2022/06/07 03:02:28;;;;;;;1.25;1.00;;;14.50;99.90;;;;;;4934682;29;20023;-86
2022/06/07 03:04:55;;;;;;;0.90;0.90;;;14.50;99.90;;;;;;4974146;28;20023;-86
2022/06/07 03:07:20;;;;;;;1.30;1.20;;;14.50;99.90;;;;;;4963644;28;20059;-86
2022/06/07 03:09:46;;;;;;;3.13;1.27;;;14.50;99.90;;;;;;4949336;29;20472;-85
2022/06/07 03:12:17;;;;;;;1.40;1.02;;;14.50;99.90;;;;;;4943548;28;20474;-86
2022/06/07 03:14:42;;;;;;;3.03;1.30;;;14.50;99.90;;;;;;4934711;29;20133;-85
2022/06/07 03:17:08;;;;;;;1.90;1.45;;;14.50;99.90;;;;;;4952404;29;20541;-86
2022/06/07 03:20:17;;;;;;;1.65;1.48;;;14.50;99.90;;;;;;4951295;29;20036;-86
2022/06/07 03:22:43;;;;;;;4.75;1.70;;;14.50;99.90;;;;;;4955103;29;20541;-86
2022/06/07 03:25:11;;;;;;;1.83;1.45;;;14.50;99.90;;;;;;4947663;28;20020;-85
2022/06/07 03:27:43;;;;;;;0.98;0.95;;;14.50;99.90;;;;;;4949080;28;20525;-86
2022/06/07 03:30:10;;;;;;;1.50;1.13;;;14.40;99.90;;;;;;4949934;29;20027;-86
2022/06/07 03:32:38;;;;;;;1.40;1.30;;;14.40;99.90;;;;;;4955257;28;20536;-86
2022/06/07 03:35:15;;;;;;;3.40;1.35;;;14.40;99.90;;;;;;4958997;28;20554;-85
2022/06/07 03:37:41;;;;;;;1.33;1.20;;;14.50;99.90;;;;;;4934284;29;20024;-86
2022/06/07 03:40:09;;;;;;;2.50;1.50;;;14.40;99.90;;;;;;4930906;29;20538;-86
2022/06/07 03:42:55;;;;;;;1.38;1.27;;;14.40;99.90;;;;;;4953177;28;20039;-87
2022/06/07 03:45:20;;;;;;;1.98;1.08;;;14.50;99.90;;;;;;4955039;29;20027;-87
2022/06/07 03:47:46;;;;;;;2.50;1.48;;;14.40;99.90;;;;;;4961998;28;20588;-86
2022/06/07 03:50:27;;;;;;;1.70;1.45;;;14.40;99.90;;;;;;4950057;29;20035;-86
2022/06/07 03:52:52;;;;;;;4.28;2.25;;;14.30;99.90;;;;;;4951969;29;20078;-86
2022/06/07 03:55:20;;;;;;;5.05;1.48;;;14.30;99.90;;;;;;4936820;28;20031;-86
2022/06/07 03:57:46;;;;;;;3.17;1.45;;;14.20;99.90;;;;;;4954869;29;20058;-86
2022/06/07 04:00:12;;;;;;;1.35;1.23;;;14.20;99.90;;;;;;4950029;28;20055;-87
2022/06/07 04:02:37;;;;;;;4.05;1.60;;;14.20;99.90;;;;;;4935735;29;20056;-86
2022/06/07 04:05:04;;;;;;;2.10;1.40;;;14.20;99.90;;;;;;4949120;29;20019;-86
2022/06/07 04:08:11;;;;;;;3.42;1.65;;;14.20;99.90;;;;;;4936803;29;20027;-86
2022/06/07 04:10:58;;;;;;;6.30;1.52;;;14.30;99.90;;;;;;4929408;29;20411;-86
2022/06/07 04:13:26;;;;;;;3.38;1.35;;;14.30;99.90;;;;;;4947696;28;20115;-87
2022/06/07 04:16:08;;;;;;;3.40;1.30;;;14.40;99.90;;;;;;4937791;29;20035;-86
2022/06/07 04:18:34;;;;;;;3.47;1.20;;;14.50;99.90;;;;;;4933422;29;20035;-86
2022/06/07 04:21:20;;;;;;;3.28;1.73;;;14.70;99.90;;;;;;4921270;29;20526;-86
2022/06/07 04:23:46;;;;;;;2.10;1.20;;;14.90;99.90;;;;;;4937474;28;20063;-85
2022/06/07 04:26:18;;;;;;;4.57;1.45;;;15.00;99.90;;;;;;4960823;28;20034;-86
2022/06/07 04:28:49;;;;;;;6.28;1.25;;;15.10;99.90;;;;;;4938021;29;20031;-85
2022/06/07 04:31:18;;;;;;;3.63;1.15;;;15.20;99.90;;;;;;4960463;29;20026;-85
2022/06/07 04:33:44;;;;;;;2.65;1.00;;;15.30;99.90;;;;;;4948477;29;20600;-85
2022/06/07 04:36:32;;;;;;;6.97;1.27;;;15.40;99.90;;;;;;4954858;28;20027;-85
2022/06/07 04:39:01;;;;;;;7.00;1.45;;;15.50;99.90;;;;;;4961261;28;20039;-85
2022/06/07 04:41:26;;;;;;;2.97;1.30;;;15.60;99.90;;;;;;4960092;28;20476;-85
2022/06/07 04:43:58;;;;;;;8.70;1.38;;;15.70;99.90;;;;;;4957657;28;20090;-85
2022/06/07 04:46:25;;;;;;;8.25;1.88;;;15.80;99.90;;;;;;4973253;28;20498;-85
2022/06/07 04:48:51;;;;;;;7.00;1.55;;;15.80;99.90;;;;;;4936197;29;20105;-86
2022/06/07 04:51:27;;;;;;;6.70;1.20;;;15.90;99.90;;;;;;4936873;29;20035;-86
2022/06/07 04:53:54;;;;;;;3.17;1.40;;;16.00;99.90;;;;;;4965839;28;20030;-86
2022/06/07 04:56:58;;;;;;;2.45;1.17;;;16.10;99.90;;;;;;4955092;29;20039;-86
2022/06/07 04:59:24;;;;;;;4.72;1.10;;;16.20;99.90;;;;;;4959072;28;20499;-86
2022/06/07 05:01:49;;;;;;;3.72;1.10;;;16.20;99.90;;;;;;4963410;28;20038;-85
2022/06/07 05:04:21;;;;;;;5.97;1.10;;;16.40;99.90;;;;;;4964980;28;20375;-85
2022/06/07 05:06:47;;;;;;;8.77;1.20;;;16.40;99.90;;;;;;4957026;28;20479;-85
2022/06/07 05:09:30;;;;;;;6.00;1.30;;;16.50;99.90;;;;;;4954896;28;20031;-85
2022/06/07 05:11:55;;;;;;;3.85;1.45;;;16.60;99.90;;;;;;4960457;29;20522;-85
2022/06/07 05:14:23;;;;;;;4.75;1.38;;;16.60;99.90;;;;;;4966054;28;20046;-85
2022/06/07 05:16:59;;;;;;;2.90;1.00;;;16.60;99.90;;;;;;4976572;28;20061;-84
2022/06/07 05:19:24;;;;;;;;;;;16.70;99.90;;;;;;4962059;28;20030;-85
2022/06/07 05:21:50;;;;;;;5.03;1.30;;;16.70;99.90;;;;;;4960037;28;19958;-85
2022/06/07 05:24:16;;;;;;;2.75;1.25;;;16.70;99.90;;;;;;4958038;28;20486;-85
2022/06/07 05:26:46;;;;;;;1.77;1.00;;;16.70;99.90;;;;;;4965516;28;20069;-86
2022/06/07 05:32:26;;;;;;;4.00;1.23;;;16.70;99.90;;;;;;4953806;28;20034;-86
2022/06/07 05:34:52;;;;;;;7.18;1.65;;;16.80;99.90;;;;;;4954585;29;20421;-87
2022/06/07 05:37:22;;;;;;;1.98;1.20;;;16.80;99.90;;;;;;4965218;28;20038;-87
2022/06/07 05:39:48;;;;;;;3.42;1.33;;;16.90;99.90;;;;;;4920978;29;20119;-88
2022/06/07 05:42:16;;;;;;;3.58;1.02;;;16.90;99.90;;;;;;4936010;29;20027;-86
2022/06/07 05:45:15;;;;;;;5.35;1.27;;;16.90;99.90;;;;;;4951912;29;20032;-87
2022/06/07 05:47:41;;;;;;;4.32;1.20;;;16.90;99.90;;;;;;4942091;29;20023;-88
2022/06/07 05:50:09;;;;;;;6.60;1.48;;;17.00;99.90;;;;;;4957119;29;20110;-87
2022/06/07 05:52:40;;;;;;;2.72;1.10;;;17.10;99.90;;;;;;4956988;29;20028;-87
2022/06/07 05:55:06;;;;;;;4.45;1.08;;;17.10;99.90;;;;;;4956520;29;20407;-86
2022/06/07 05:57:33;;;;;;;9.13;1.67;;;17.10;99.90;;;;;;4936931;29;20039;-86
2022/06/07 06:00:09;;;;;;;6.60;1.50;;;17.30;99.90;;;;;;4957040;29;20026;-87
2022/06/07 06:02:42;;;;;;;5.30;1.00;;;17.30;99.90;;;;;;4971881;28;20558;-86
2022/06/07 06:05:08;;;;;;;1.45;1.25;;;17.40;99.90;;;;;;4955638;28;20035;-85
2022/06/07 06:07:33;;;;;;;5.18;1.42;;;17.50;99.90;;;;;;4937968;29;20418;-86
2022/06/07 06:10:19;;;;;;;4.97;1.45;;;17.50;99.90;;;;;;4965481;28;20031;-85
2022/06/07 06:12:45;;;;;;;;;;;17.50;99.90;;;;;;4963487;28;20027;-86
2022/06/07 06:15:10;;;;;;;4.57;1.30;;;17.40;99.90;;;;;;4939045;29;19912;-85
2022/06/07 06:17:36;;;;;;;8.60;1.38;;;17.50;99.90;;;;;;4956380;29;20090;-86
2022/06/07 06:20:02;;;;;;;3.70;1.10;;;17.50;99.90;;;;;;4956248;29;20039;-87
2022/06/07 06:22:28;;;;;;;6.63;1.10;;;17.50;99.90;;;;;;4971024;28;20386;-87
2022/06/07 06:24:54;;;;;;;5.30;1.08;;;17.50;99.90;;;;;;4970821;28;20110;-86
2022/06/07 06:27:21;;;;;;;2.50;1.00;;;17.60;99.90;;;;;;4956125;29;20479;-86
2022/06/07 06:29:47;;;;;;;3.42;1.27;;;17.70;99.90;;;;;;4955786;29;20035;-86
2022/06/07 06:32:13;;;;;;;3.72;0.98;;;17.70;99.90;;;;;;4956186;29;20019;-85
2022/06/07 06:34:38;;;;;;;1.98;1.23;;;17.80;99.90;;;;;;4955793;29;20146;-86
2022/06/07 06:37:04;;;;;;;9.82;1.00;;;17.80;99.90;;;;;;4955995;29;20027;-84
2022/06/07 06:39:30;;;;;;;10.05;1.20;;;17.90;99.90;;;;;;4955338;29;20028;-85
2022/06/07 06:41:55;;;;;;;1.73;0.85;;;17.90;99.90;;;;;;4956015;29;20031;-88
2022/06/07 06:44:21;;;;;;;2.65;1.00;;;17.90;99.90;;;;;;4938593;29;20031;-87
2022/06/07 06:46:47;;;;;;;2.85;0.90;;;17.90;99.90;;;;;;4955936;28;20486;-84
2022/06/07 06:49:18;;;;;;;1.45;0.70;;;17.90;99.90;;;;;;4955424;29;20134;-85
2022/06/07 06:51:44;;;;;;;5.65;0.88;;;17.90;99.90;;;;;;4955707;29;20027;-85
2022/06/07 06:54:12;;;;;;;1.80;0.63;;;17.80;99.90;;;;;;4955312;29;20033;-84
2022/06/07 06:56:38;;;;;;;1.55;0.77;;;17.90;99.90;;;;;;4955554;29;20043;-88
2022/06/07 06:59:04;;;;;;;0.77;0.47;;;17.90;99.90;;;;;;4938405;29;20035;-85
2022/06/07 07:01:32;;;;;;;4.15;1.00;;;17.90;99.90;;;;;;4970317;28;20090;-84
2022/06/07 07:04:04;;;;;;;5.53;1.40;;;17.90;99.90;;;;;;4955455;29;20028;-85
2022/06/07 07:06:29;;;;;;;2.20;0.80;;;17.90;99.90;;;;;;4955385;29;20086;-85
2022/06/07 07:08:56;;;;;;;6.97;0.70;;;18.00;99.90;;;;;;4951103;29;20043;-84
2022/06/07 07:11:28;;;;;;;3.92;0.93;;;18.00;99.90;;;;;;4937526;29;20491;-84
2022/06/07 07:13:56;;;;;;;4.50;1.15;;;18.00;99.90;;;;;;4929192;29;20428;-85
2022/06/07 07:16:24;;;;;;;5.55;0.90;;;18.00;99.90;;;;;;4943542;28;20102;-84
2022/06/07 07:18:50;;;;;;;2.65;0.98;;;18.10;99.90;;;;;;4954290;29;20066;-86
2022/06/07 07:21:35;;;;;;;1.98;0.80;;;18.10;99.90;;;;;;4938564;29;20043;-85
2022/06/07 07:24:08;;;;;;;3.15;1.10;;;18.20;99.90;;;;;;4956655;28;20027;-84
2022/06/07 07:26:36;;;;;;;2.40;1.10;;;18.10;99.90;;;;;;4951762;28;20030;-85
2022/06/07 07:29:21;;;;;;;8.77;1.30;;;18.10;99.90;;;;;;4967819;28;20027;-85
2022/06/07 07:31:47;;;;;;;7.45;1.30;;;18.20;99.90;;;;;;4932440;29;20023;-85
2022/06/07 07:34:14;;;;;;;2.75;0.75;;;18.20;99.90;;;;;;4938531;29;20032;-84
2022/06/07 07:36:55;;;;;;;4.30;0.95;;;18.30;99.90;;;;;;4953205;29;20373;-85
2022/06/07 07:39:21;;;;;;;3.35;0.90;;;18.40;99.90;;;;;;4953463;29;20024;-85
2022/06/07 07:41:49;;;;;;;5.43;0.90;;;18.40;99.90;;;;;;4946380;29;20023;-85
2022/06/07 07:44:24;;;;;;;0.70;0.50;;;18.40;99.90;;;;;;4959170;28;20019;-84
2022/06/07 07:46:55;;;;;;;3.10;1.00;;;18.40;99.90;;;;;;4951501;28;20103;-85
2022/06/07 07:49:21;;;;;;;6.55;0.95;;;18.50;99.90;;;;;;4941927;28;20031;-83
2022/06/07 07:51:49;;;;;;;1.85;0.85;;;18.50;99.90;;;;;;4947545;29;20023;-84
2022/06/07 07:54:18;;;;;;;3.70;1.60;;;18.50;99.90;;;;;;4950838;28;20035;-83
2022/06/07 07:56:44;;;;;;;3.15;1.40;;;18.60;99.90;;;;;;4945831;29;20399;-83
2022/06/07 07:59:13;;;;;;;3.53;0.90;;;18.60;99.90;;;;;;4935311;29;20032;-84
2022/06/07 08:01:39;;;;;;;6.22;1.08;;;18.70;99.90;;;;;;4918797;29;20047;-85
2022/06/07 08:04:06;;;;;;;3.50;1.00;;;18.70;99.90;;;;;;4949886;28;20352;-84
2022/06/07 08:06:40;;;;;;;5.22;1.10;;;18.70;99.90;;;;;;4951796;28;20023;-86
2022/06/07 08:09:08;;;;;;;2.05;0.80;;;18.80;99.90;;;;;;4953216;28;20046;-84
2022/06/07 08:11:37;;;;;;;5.32;1.42;;;18.80;99.90;;;;;;4957776;28;20106;-86
2022/06/07 08:14:05;;;;;;;5.07;1.27;;;18.90;99.90;;;;;;4932734;29;20023;-85
2022/06/07 08:16:31;;;;;;;3.40;0.80;;;18.90;99.90;;;;;;4946270;28;20028;-85
2022/06/07 08:19:08;;;;;;;7.68;0.93;;;18.80;99.90;;;;;;4935514;29;20036;-85
2022/06/07 08:21:34;;;;;;;2.13;1.02;;;18.90;99.90;;;;;;4935743;28;20122;-84
2022/06/07 08:23:59;;;;;;;4.25;0.68;;;19.00;99.90;;;;;;4955482;28;20110;-84
2022/06/07 08:26:27;;;;;;;4.75;0.77;;;19.00;99.90;;;;;;4948181;28;20428;-86
2022/06/07 08:28:54;;;;;;;2.60;0.80;;;19.10;99.90;;;;;;4932179;29;20082;-84
2022/06/07 08:31:23;;;;;;;5.40;0.90;;;19.10;99.90;;;;;;4965426;28;20456;-83
2022/06/07 08:39:18;;;;;;;3.85;0.75;;;19.30;99.90;;;;;;4958289;28;20041;-84
2022/06/07 08:41:50;;;;;;;2.67;0.93;;;19.30;99.90;;;;;;4954169;28;20038;-84
2022/06/07 08:44:27;;;;;;;2.05;0.85;;;19.30;99.90;;;;;;4956509;28;20031;-83
2022/06/07 08:47:35;;;;;;;4.60;0.90;;;19.30;99.90;;;;;;4955375;28;20663;-83
2022/06/07 08:50:39;;;;;;;5.15;0.60;;;19.40;99.90;;;;;;4959263;28;20027;-84
2022/06/07 08:53:17;;;;;;;3.45;0.98;;;19.40;99.90;;;;;;4932271;28;20039;-84
2022/06/07 08:55:47;;;;;;;2.75;0.77;;;19.30;99.90;;;;;;4952843;28;20113;-82
2022/06/07 08:58:15;;;;;;;2.17;0.80;;;19.10;99.90;;;;;;4946483;28;20039;-84
2022/06/07 09:00:46;;;;;;;2.85;0.90;;;19.00;99.90;;;;;;4958326;28;20046;-84
2022/06/07 09:03:32;;;;;;;2.78;0.93;;;18.90;99.90;;;;;;4954327;28;20027;-84
2022/06/07 09:06:02;;;;;;;5.97;0.70;;;18.90;99.90;;;;;;4951332;28;20031;-84
2022/06/07 09:08:44;;;;;;;5.05;0.88;;;18.90;99.90;;;;;;4951775;28;20031;-83
2022/06/07 09:14:44;;;;;;;2.80;1.20;;;19.10;99.90;;;;;;4938500;29;20483;-83
2022/06/07 09:17:14;;;;;;;2.60;0.63;;;19.40;99.90;;;;;;4948751;29;20131;-83
2022/06/07 09:19:42;;;;;;;6.50;0.90;;;19.70;99.90;;;;;;4958525;28;20522;-83
2022/06/07 09:22:16;;;;;;;3.33;0.90;;;19.80;99.90;;;;;;4954100;29;20031;-83
2022/06/07 09:25:19;;;;;;;3.50;1.10;;;19.70;99.90;;;;;;4949208;29;20375;-83
2022/06/07 09:27:45;;;;;;;4.10;1.08;;;19.70;99.90;;;;;;4967810;28;20035;-83
2022/06/07 09:30:19;;;;;;;6.55;1.00;;;19.80;99.90;;;;;;4969774;28;20031;-83
2022/06/07 09:32:50;;;;;;;4.93;1.20;;;19.90;99.90;;;;;;4968129;28;20030;-83
2022/06/07 09:35:38;;;;;;;1.73;0.88;;;20.00;99.90;;;;;;4957067;28;20027;-83
2022/06/07 09:38:13;;;;;;;4.32;1.92;;;20.10;99.60;;;;;;4956097;29;20032;-83
2022/06/07 09:43:51;;;;;;;2.10;1.25;;;20.20;99.80;;;;;;4967336;28;20558;-83
2022/06/07 09:46:46;;;;;;;4.15;1.00;;;20.10;99.90;;;;;;4957322;29;20023;-83
2022/06/07 09:49:45;;;;;;;8.10;1.42;;;19.90;99.90;;;;;;4971481;28;20034;-83
2022/06/07 09:52:39;;;;;;;3.05;0.90;;;19.70;99.90;;;;;;4964812;28;20032;-83
2022/06/07 09:55:32;;;;;;;3.45;0.90;;;19.60;99.90;;;;;;4938173;28;20651;-84
2022/06/07 09:58:27;;;;;;;3.53;0.77;;;19.60;99.90;;;;;;4960612;28;20538;-84
2022/06/07 10:01:33;;;;;;;2.45;0.85;;;19.60;99.90;;;;;;4946089;28;20107;-84
2022/06/07 10:04:10;;;;;;;3.80;1.30;;;19.60;99.90;;;;;;4953551;29;20031;-83
2022/06/07 10:06:43;;;;;;;3.08;0.90;;;19.70;99.90;;;;;;4956460;29;20031;-83
2022/06/07 10:09:34;;;;;;;7.05;1.30;;;19.70;99.90;;;;;;4938872;29;20039;-83
2022/06/07 10:12:16;;;;;;;3.60;0.93;;;19.80;99.90;;;;;;4956222;29;20031;-83
2022/06/07 10:14:59;;;;;;;7.15;0.90;;;19.90;99.90;;;;;;4951254;28;20033;-83
2022/06/07 10:17:50;;;;;;;5.47;0.82;;;19.70;99.90;;;;;;4957903;28;20037;-83
2022/06/07 10:20:24;;;;;;;3.97;1.00;;;19.70;99.90;;;;;;4958479;28;20036;-83
2022/06/07 10:23:09;;;;;;;6.28;1.35;;;19.80;99.90;;;;;;4955508;28;20563;-84
2022/06/07 10:26:02;;;;;;;5.93;0.93;;;19.90;99.90;;;;;;4955902;29;20464;-83
2022/06/07 10:28:42;;;;;;;4.15;0.98;;;20.10;99.90;;;;;;4947702;28;20027;-84
2022/06/07 10:31:46;;;;;;;4.82;0.80;;;20.30;99.90;;;;;;4959228;28;20482;-84
2022/06/07 10:34:52;;;;;;;3.42;1.23;;;20.60;99.90;;;;;;4951108;29;20031;-83
2022/06/07 10:37:34;;;;;;;4.57;1.05;;;20.60;98.60;;;;;;4934120;29;20042;-83
2022/06/07 10:40:25;;;;;;;2.47;0.80;;;20.60;98.30;;;;;;4933874;28;20035;-84
2022/06/07 10:43:01;;;;;;;3.60;0.68;;;20.70;98.50;;;;;;4963651;28;20033;-83
2022/06/07 10:45:31;;;;;;;;;;;20.60;99.20;;;;;;4944726;28;20035;-83
2022/06/07 10:48:16;;;;;;;1.10;0.77;;;20.50;99.90;;;;;;4968586;28;19917;-84
2022/06/07 10:54:35;;;;;;;3.25;0.93;;;20.20;99.90;;;;;;4961038;28;20026;-83
2022/06/07 10:57:20;;;;;;;4.55;1.15;;;20.10;99.90;;;;;;4955498;28;20406;-84
2022/06/07 10:59:46;;;;;;;4.35;0.90;;;20.00;99.90;;;;;;4951119;28;20519;-83
2022/06/07 11:02:49;;;;;;;2.65;0.95;;;19.90;99.90;;;;;;4953657;28;20062;-85
2022/06/07 11:11:33;;;;;;;10.10;1.08;;;20.20;99.90;;;;;;4961910;28;20043;-84
2022/06/07 11:14:24;;;;;;;3.40;0.77;;;20.40;99.90;;;;;;4970048;28;20035;-83
2022/06/07 11:17:12;;;;;;;5.00;1.23;;;20.50;99.90;;;;;;4929727;28;20586;-83
2022/06/07 11:19:38;;;;;;;3.97;1.10;;;20.40;99.90;;;;;;4972340;28;20514;-82
2022/06/07 11:22:05;;;;;;;6.85;0.90;;;20.30;99.90;;;;;;4958007;28;20167;-83
2022/06/07 11:24:54;;;;;;;5.03;1.35;;;20.20;99.90;;;;;;4935369;28;20039;-83
2022/06/07 11:27:22;;;;;;;0.63;0.60;;;20.10;99.90;;;;;;4949854;28;20178;-83
2022/06/07 11:29:48;;;;;;;1.17;0.70;;;20.00;97.10;;;;;;4949791;28;20030;-84
2022/06/07 11:32:53;;;;;;;3.15;0.90;;;20.00;97.20;;;;;;4936624;28;20024;-84
2022/06/07 11:36:03;;;;;;;4.50;0.80;;;20.00;98.50;;;;;;4951567;28;20027;-83
2022/06/07 11:38:30;;;;;;;7.00;0.70;;;20.30;96.80;;;;;;4955985;28;20109;-84
2022/06/07 11:41:36;;;;;;;4.25;1.10;;;20.60;92.50;;;;;;4972665;28;20125;-83
2022/06/07 11:43:55;;;;;;;4.80;0.90;;;21.00;79.50;;;;;;4954083;28;20043;-83
2022/06/07 11:46:27;;;;;;;1.55;0.40;;;21.30;76.50;;;;;;4961552;28;20118;-84
2022/06/07 11:48:54;;;;;;;2.53;0.70;;;21.40;76.40;;;;;;4956226;28;20059;-84
2022/06/07 11:51:21;;;;;;;1.15;0.50;;;21.40;61.90;;;;;;4927111;29;20435;-84
2022/06/07 11:54:01;;;;;;;1.98;0.60;;;21.10;64.80;;;;;;4950376;29;20023;-84
2022/06/07 11:56:30;;;;;;;4.18;1.02;;;21.10;66.70;;;;;;4954375;29;20067;-83
2022/06/07 11:59:03;;;;;;;6.38;0.93;;;21.10;70.90;;;;;;4931263;28;20078;-83
2022/06/07 12:01:36;;;;;;;3.53;0.82;;;21.10;66.20;;;;;;4944987;28;20387;-83
2022/06/07 12:04:45;;;;;;;2.80;0.60;;;21.10;63.70;;;;;;4945040;28;20026;-84
2022/06/07 12:07:35;;;;;;;4.32;0.57;;;21.10;72.10;;;;;;4935855;29;20055;-84
2022/06/07 12:10:19;;;;;;;3.00;0.60;;;21.40;62.90;;;;;;4953183;28;20039;-82
2022/06/07 12:12:55;;;;;;;0.60;0.43;;;21.40;60.10;;;;;;4968505;28;20383;-83
2022/06/07 12:15:51;;;;;;;3.72;0.75;;;21.30;60.30;;;;;;4953246;28;20059;-81
2022/06/07 12:18:24;;;;;;;2.80;0.70;;;21.30;62.20;;;;;;4930346;28;20122;-81
2022/06/07 12:21:15;;;;;;;1.23;0.68;;;21.20;69.30;;;;;;4969091;28;20142;-82
2022/06/07 12:23:47;;;;;;;1.48;0.63;;;21.40;69.80;;;;;;4967965;28;20034;-84
2022/06/07 12:26:19;;;;;;;2.53;0.55;;;21.40;65.80;;;;;;4964357;28;20031;-84
2022/06/07 12:29:23;;;;;;;0.40;0.40;;;21.50;68.00;;;;;;4951706;28;20058;-84
2022/06/07 12:31:52;;;;;;;2.67;0.60;;;21.70;66.00;;;;;;4959369;28;20034;-84
2022/06/07 12:34:25;;;;;;;1.35;0.80;;;22.10;66.40;;;;;;4937406;28;20019;-84
2022/06/07 12:37:28;;;;;;;0.85;0.50;;;22.30;58.90;;;;;;4962293;28;20032;-84
2022/06/07 12:39:57;;;;;;;0.75;0.60;;;22.40;62.80;;;;;;4936527;28;20114;-84
2022/06/07 12:42:27;;;;;;;4.97;0.63;;;22.50;60.20;;;;;;4964156;28;20030;-84
2022/06/07 12:44:54;;;;;;;1.52;0.70;;;22.60;55.60;;;;;;4956257;28;20498;-84
2022/06/07 12:47:32;;;;;;;2.40;0.77;;;22.60;55.70;;;;;;4954823;28;20031;-86
2022/06/07 12:49:58;;;;;;;2.70;0.50;;;22.50;55.90;;;;;;4944262;28;20051;-85
2022/06/07 12:52:33;;;;;;;0.60;0.35;;;22.60;59.20;;;;;;4942236;28;20023;-84
2022/06/07 12:55:13;;;;;;;3.75;0.63;;;22.70;56.80;;;;;;4957360;28;20395;-84
2022/06/07 12:57:48;;;;;;;3.00;0.65;;;22.90;53.70;;;;;;4947564;29;20043;-83
2022/06/07 13:00:18;;;;;;;3.20;0.80;;;22.90;53.80;;;;;;4957732;29;20050;-85
2022/06/07 13:03:00;;;;;;;0.38;0.38;;;22.80;51.60;;;;;;4952590;28;20039;-84
2022/06/07 13:05:29;;;;;;;1.73;0.50;;;22.60;51.20;;;;;;4953000;28;20054;-84
2022/06/07 13:07:57;;;;;;;0.88;0.65;;;22.40;52.50;;;;;;4960474;28;20030;-83
2022/06/07 13:10:33;;;;;;;4.55;0.60;;;22.20;53.20;;;;;;4974216;28;20042;-85
2022/06/07 13:13:02;;;;;;;0.77;0.60;;;22.00;54.80;;;;;;4963744;28;20029;-83
2022/06/07 13:15:32;;;;;;;9.27;0.93;;;22.00;59.80;;;;;;4970834;28;20027;-87
2022/06/07 13:18:05;;;;;;;1.65;0.70;;;22.10;59.60;;;;;;4957325;28;20031;-85
2022/06/07 13:20:35;;;;;;;2.72;0.63;;;22.30;60.00;;;;;;4957965;29;20027;-84
2022/06/07 13:23:19;;;;;;;0.50;0.50;;;22.40;59.30;;;;;;4942379;28;20043;-84
2022/06/07 13:25:44;;;;;;;1.48;0.60;;;22.40;60.20;;;;;;4953355;28;20039;-85
2022/06/07 13:28:10;;;;;;;0.90;0.70;;;22.40;58.70;;;;;;4956550;29;20031;-85
2022/06/07 13:30:45;;;;;;;5.63;0.82;;;22.30;59.70;;;;;;4940301;29;20049;-83
2022/06/07 13:33:26;;;;;;;4.53;0.60;;;22.00;59.80;;;;;;4957412;28;20034;-84
2022/06/07 13:35:59;;;;;;;1.60;0.65;;;22.00;62.70;;;;;;4957062;28;20034;-84
2022/06/07 13:38:49;;;;;;;5.40;0.73;;;22.20;68.80;;;;;;4958516;28;20031;-83
2022/06/07 13:41:21;;;;;;;0.65;0.60;;;22.40;63.10;;;;;;4957026;28;20440;-85
2022/06/07 13:44:10;;;;;;;1.55;0.60;;;22.50;62.60;;;;;;4957045;29;20051;-85
2022/06/07 13:47:01;;;;;;;0.73;0.60;;;22.50;65.30;;;;;;4966015;28;20027;-84
2022/06/07 13:55:51;;;;;;;1.30;0.80;;;22.80;67.40;;;;;;4972927;28;20061;-85
2022/06/07 13:58:19;;;;;;;5.53;0.68;;;23.10;66.00;;;;;;4975187;28;20035;-85